createdAt,value
2019-01-04T00:00:41.794Z,11.68
2019-01-04T00:01:47.003Z,14.55
2019-01-04T00:02:51.981Z,11.45
2019-01-04T00:03:56.911Z,12.33
2019-01-04T00:05:01.823Z,7.70
2019-01-04T00:06:06.943Z,13.53
2019-01-04T00:07:12.464Z,8.63
2019-01-04T00:08:17.709Z,10.80
2019-01-04T00:09:22.594Z,12.68
2019-01-04T00:10:27.476Z,19.50
2019-01-04T00:11:32.441Z,21.50
2019-01-04T00:12:37.334Z,17.17
2019-01-04T00:13:42.317Z,12.13
2019-01-04T00:14:48.014Z,12.70
2019-01-04T00:15:52.894Z,10.82
2019-01-04T00:16:58.178Z,14.87
2019-01-04T00:18:03.050Z,10.90
2019-01-04T00:19:08.038Z,12.80
2019-01-04T00:20:12.991Z,9.68
2019-01-04T00:21:18.025Z,14.23
2019-01-04T00:22:22.914Z,11.65
2019-01-04T00:23:27.954Z,10.32
2019-01-04T00:24:32.859Z,14.80
2019-01-04T00:25:38.119Z,11.50
2019-01-04T00:26:43.023Z,8.78
2019-01-04T00:27:48.561Z,17.23
2019-01-04T00:28:53.861Z,15.60
2019-01-04T00:29:59.072Z,13.28
2019-01-04T00:31:04.308Z,21.52
2019-01-04T00:32:09.272Z,10.35
2019-01-04T00:33:14.475Z,11.50
2019-01-04T00:34:19.428Z,13.72
2019-01-04T00:35:24.662Z,13.10
2019-01-04T00:36:29.670Z,21.60
2019-01-04T00:37:34.862Z,16.35
2019-01-04T00:38:40.799Z,11.33
2019-01-04T00:39:46.344Z,13.88
2019-01-04T00:40:51.634Z,12.07
2019-01-04T00:41:56.644Z,13.60
2019-01-04T00:43:01.592Z,16.37
2019-01-04T00:44:06.564Z,11.60
2019-01-04T00:45:11.775Z,16.48
2019-01-04T00:46:16.752Z,16.27
2019-01-04T00:47:21.774Z,12.00
2019-01-04T00:48:26.760Z,13.53
2019-01-04T00:49:31.685Z,15.32
2019-01-04T00:50:36.723Z,16.17
2019-01-04T00:51:41.804Z,14.55
2019-01-04T00:52:46.765Z,10.23
2019-01-04T00:53:51.794Z,12.00
2019-01-04T00:55:01.351Z,13.20
2019-01-04T00:56:47.234Z,11.00
2019-01-04T00:58:00.235Z,14.18
2019-01-04T00:59:39.159Z,15.55
2019-01-04T01:01:14.122Z,12.70
2019-01-04T01:02:54.759Z,13.78
2019-01-04T01:04:37.979Z,12.35
2019-01-04T01:06:41.865Z,13.48
2019-01-04T01:08:14.098Z,15.23
2019-01-04T01:10:30.060Z,14.25
2019-01-04T01:12:06.080Z,12.70
2019-01-04T01:13:47.869Z,12.13
2019-01-04T01:15:42.869Z,14.95
2019-01-04T01:17:02.321Z,19.60
2019-01-04T01:19:03.198Z,12.28
2019-01-04T01:20:37.513Z,12.47
2019-01-04T01:22:24.924Z,10.80
2019-01-04T01:24:06.608Z,16.73
2019-01-04T01:26:10.436Z,15.72
2019-01-04T01:27:55.224Z,13.70
2019-01-04T01:29:43.214Z,13.65
2019-01-04T01:31:35.422Z,12.00
2019-01-04T01:32:50.343Z,9.38
2019-01-04T01:34:31.998Z,11.80
2019-01-04T01:36:02.950Z,15.20
2019-01-04T01:37:53.136Z,16.32
2019-01-04T01:39:46.379Z,13.75
2019-01-04T01:41:20.437Z,12.28
2019-01-04T01:43:01.318Z,11.60
2019-01-04T01:44:39.143Z,13.88
2019-01-04T01:46:20.951Z,14.55
2019-01-04T01:47:43.523Z,11.88
2019-01-04T01:49:34.079Z,16.15
2019-01-04T01:51:17.233Z,16.20
2019-01-04T01:52:26.498Z,16.20
2019-01-04T01:53:44.761Z,13.25
2019-01-04T01:54:49.663Z,10.82
2019-01-04T01:55:54.618Z,15.83
2019-01-04T01:56:59.512Z,14.45
2019-01-04T01:58:04.425Z,14.93
2019-01-04T01:59:09.328Z,11.33
2019-01-04T02:00:14.765Z,15.60
2019-01-04T02:01:19.768Z,16.73
2019-01-04T02:02:24.921Z,13.85
2019-01-04T02:03:29.814Z,17.30
2019-01-04T02:04:34.703Z,14.50
2019-01-04T02:05:39.681Z,15.03
2019-01-04T02:06:44.569Z,14.90
2019-01-04T02:07:49.450Z,16.00
2019-01-04T02:08:54.362Z,11.53
2019-01-04T02:09:59.333Z,14.10
2019-01-04T02:11:04.292Z,13.43
2019-01-04T02:12:09.318Z,13.85
2019-01-04T02:13:14.207Z,15.05
2019-01-04T02:14:19.670Z,17.52
2019-01-04T02:15:24.551Z,14.13
2019-01-04T02:16:29.560Z,22.48
2019-01-04T02:17:34.531Z,16.97
2019-01-04T02:18:39.419Z,15.75
2019-01-04T02:19:44.402Z,18.55
2019-01-04T02:20:49.362Z,15.58
2019-01-04T02:21:54.492Z,13.20
2019-01-04T02:22:59.395Z,19.27
2019-01-04T02:24:04.282Z,18.75
2019-01-04T02:25:09.436Z,16.52
2019-01-04T02:26:14.419Z,13.70
2019-01-04T02:27:19.304Z,19.25
2019-01-04T02:28:24.434Z,15.48
2019-01-04T02:29:29.317Z,16.85
2019-01-04T02:30:34.232Z,17.20
2019-01-04T02:31:39.129Z,12.90
2019-01-04T02:32:44.318Z,12.07
2019-01-04T02:33:49.448Z,13.03
2019-01-04T02:34:54.354Z,15.45
2019-01-04T02:35:59.255Z,13.93
2019-01-04T02:37:04.223Z,17.65
2019-01-04T02:38:09.120Z,22.80
2019-01-04T02:39:14.010Z,14.35
2019-01-04T02:40:18.921Z,15.83
2019-01-04T02:41:24.073Z,17.85
2019-01-04T02:42:28.994Z,16.32
2019-01-04T02:43:34.969Z,14.87
2019-01-04T02:44:39.843Z,16.48
2019-01-04T02:45:44.737Z,19.30
2019-01-04T02:46:49.649Z,12.82
2019-01-04T02:47:54.798Z,14.07
2019-01-04T02:48:59.711Z,19.67
2019-01-04T02:50:05.230Z,12.37
2019-01-04T02:51:10.122Z,16.35
2019-01-04T02:52:15.038Z,17.17
2019-01-04T02:53:19.926Z,14.10
2019-01-04T02:54:24.813Z,13.20
2019-01-04T02:55:29.724Z,14.40
2019-01-04T02:56:34.632Z,12.75
2019-01-04T02:57:39.794Z,15.80
2019-01-04T02:58:44.689Z,19.02
2019-01-04T02:59:49.628Z,14.28
2019-01-04T03:00:54.840Z,17.35
2019-01-04T03:01:59.736Z,17.12
2019-01-04T03:03:05.036Z,15.48
2019-01-04T03:04:09.929Z,17.42
2019-01-04T03:05:14.903Z,18.70
2019-01-04T03:06:19.967Z,15.50
2019-01-04T03:07:24.862Z,12.63
2019-01-04T03:08:30.041Z,13.70
2019-01-04T03:09:34.924Z,14.70
2019-01-04T03:10:40.056Z,16.07
2019-01-04T03:11:44.940Z,14.45
2019-01-04T03:12:49.826Z,13.68
2019-01-04T03:13:54.994Z,17.48
2019-01-04T03:15:00.247Z,12.90
2019-01-04T03:16:05.213Z,18.23
2019-01-04T03:17:10.166Z,15.48
2019-01-04T03:18:15.060Z,17.62
2019-01-04T03:19:20.049Z,17.80
2019-01-04T03:20:24.942Z,14.65
2019-01-04T03:21:29.835Z,19.67
2019-01-04T03:22:34.727Z,16.32
2019-01-04T03:23:39.939Z,14.63
2019-01-04T03:24:45.114Z,17.27
2019-01-04T03:25:50.080Z,15.53
2019-01-04T03:26:55.255Z,17.25
2019-01-04T03:28:00.388Z,20.12
2019-01-04T03:29:05.523Z,21.23
2019-01-04T03:30:10.614Z,18.05
2019-01-04T03:31:15.486Z,17.50
2019-01-04T03:32:20.374Z,17.20
2019-01-04T03:33:25.509Z,18.05
2019-01-04T03:34:30.405Z,16.02
2019-01-04T03:35:35.325Z,20.57
2019-01-04T03:36:40.214Z,14.38
2019-01-04T03:37:45.125Z,16.50
2019-01-04T03:38:50.028Z,16.23
2019-01-04T03:39:54.992Z,17.05
2019-01-04T03:41:00.132Z,17.52
2019-01-04T03:42:05.107Z,16.00
2019-01-04T03:43:10.323Z,16.20
2019-01-04T03:44:15.223Z,18.92
2019-01-04T03:45:20.200Z,21.40
2019-01-04T03:46:25.988Z,16.50
2019-01-04T03:47:30.890Z,14.73
2019-01-04T03:48:35.788Z,17.85
2019-01-04T03:49:40.679Z,19.50
2019-01-04T03:50:45.576Z,14.15
2019-01-04T03:51:50.488Z,17.60
2019-01-04T03:52:55.399Z,15.23
2019-01-04T03:54:00.512Z,17.23
2019-01-04T03:55:05.648Z,15.13
2019-01-04T03:56:10.845Z,18.57
2019-01-04T03:57:15.776Z,17.77
2019-01-04T03:58:20.678Z,18.27
2019-01-04T03:59:25.567Z,17.98
2019-01-04T04:00:30.534Z,15.00
2019-01-04T04:01:35.415Z,20.52
2019-01-04T04:02:40.836Z,16.02
2019-01-04T04:03:45.725Z,18.95
2019-01-04T04:04:50.896Z,19.20
2019-01-04T04:05:55.893Z,13.70
2019-01-04T04:07:01.060Z,20.08
2019-01-04T04:08:06.049Z,17.77
2019-01-04T04:09:11.014Z,17.35
2019-01-04T04:10:15.893Z,15.65
2019-01-04T04:11:20.865Z,15.80
2019-01-04T04:12:25.768Z,16.52
2019-01-04T04:13:30.673Z,18.80
2019-01-04T04:14:35.582Z,15.80
2019-01-04T04:15:40.492Z,20.60
2019-01-04T04:16:45.411Z,17.92
2019-01-04T04:17:50.556Z,21.30
2019-01-04T04:18:55.461Z,20.57
2019-01-04T04:20:00.346Z,20.77
2019-01-04T04:21:05.242Z,16.02
2019-01-04T04:22:11.411Z,22.30
2019-01-04T04:23:16.304Z,15.98
2019-01-04T04:24:21.213Z,18.02
2019-01-04T04:25:26.124Z,16.82
2019-01-04T04:26:31.289Z,17.40
2019-01-04T04:27:36.450Z,23.62
2019-01-04T04:28:41.363Z,16.57
2019-01-04T04:29:46.510Z,17.32
2019-01-04T04:30:51.677Z,18.70
2019-01-04T04:31:56.818Z,18.20
2019-01-04T04:33:01.968Z,18.67
2019-01-04T04:34:06.877Z,20.12
2019-01-04T04:35:11.787Z,19.30
2019-01-04T04:36:16.702Z,16.97
2019-01-04T04:37:21.603Z,19.30
2019-01-04T04:38:26.496Z,16.07
2019-01-04T04:39:31.396Z,16.27
2019-01-04T04:40:36.301Z,18.02
2019-01-04T04:41:41.210Z,16.15
2019-01-04T04:42:46.111Z,16.70
2019-01-04T04:43:51.070Z,21.25
2019-01-04T04:44:56.210Z,20.52
2019-01-04T04:46:01.203Z,21.82
2019-01-04T04:47:06.090Z,16.40
2019-01-04T04:48:10.985Z,18.17
2019-01-04T04:49:15.978Z,18.15
2019-01-04T04:50:20.901Z,21.73
2019-01-04T04:51:25.800Z,17.45
2019-01-04T04:52:30.708Z,19.02
2019-01-04T04:53:36.025Z,17.75
2019-01-04T04:54:40.973Z,21.05
2019-01-04T04:55:45.887Z,23.12
2019-01-04T04:56:50.795Z,15.58
2019-01-04T04:57:55.686Z,24.35
2019-01-04T04:59:00.578Z,20.48
2019-01-04T05:00:06.251Z,22.82
2019-01-04T05:01:11.137Z,18.37
2019-01-04T05:02:16.044Z,18.57
2019-01-04T05:03:20.939Z,19.57
2019-01-04T05:04:25.918Z,19.12
2019-01-04T05:05:30.805Z,22.17
2019-01-04T05:06:35.711Z,23.42
2019-01-04T05:07:40.610Z,18.92
2019-01-04T05:08:45.494Z,17.70
2019-01-04T05:09:50.393Z,19.32
2019-01-04T05:10:55.324Z,18.60
2019-01-04T05:12:00.233Z,20.37
2019-01-04T05:13:05.144Z,17.50
2019-01-04T05:14:10.027Z,19.67
2019-01-04T05:15:14.930Z,17.20
2019-01-04T05:16:19.821Z,20.65
2019-01-04T05:17:24.719Z,17.20
2019-01-04T05:18:29.623Z,21.33
2019-01-04T05:19:34.525Z,22.40
2019-01-04T05:20:39.424Z,19.55
2019-01-04T05:21:44.312Z,17.65
2019-01-04T05:22:49.468Z,18.17
2019-01-04T05:23:54.629Z,17.50
2019-01-04T05:24:59.542Z,20.10
2019-01-04T05:26:04.443Z,20.48
2019-01-04T05:27:09.400Z,23.77
2019-01-04T05:28:14.366Z,19.73
2019-01-04T05:29:19.272Z,24.90
2019-01-04T05:30:24.411Z,18.48
2019-01-04T05:31:29.292Z,21.73
2019-01-04T05:32:34.181Z,18.35
2019-01-04T05:33:39.086Z,17.30
2019-01-04T05:34:44.238Z,20.97
2019-01-04T05:35:49.457Z,23.35
2019-01-04T05:36:54.346Z,18.65
2019-01-04T05:37:59.311Z,18.32
2019-01-04T05:39:05.605Z,20.12
2019-01-04T05:40:10.590Z,19.80
2019-01-04T05:41:15.480Z,21.62
2019-01-04T05:42:20.630Z,20.30
2019-01-04T05:43:25.547Z,20.20
2019-01-04T05:44:30.437Z,24.87
2019-01-04T05:45:35.423Z,19.25
2019-01-04T05:46:40.314Z,23.27
2019-01-04T05:47:45.718Z,21.48
2019-01-04T05:48:50.614Z,20.50
2019-01-04T05:49:55.813Z,20.85
2019-01-04T05:51:00.730Z,23.27
2019-01-04T05:52:11.061Z,25.02
2019-01-04T05:53:16.962Z,21.77
2019-01-04T05:54:21.848Z,23.30
2019-01-04T05:55:26.740Z,17.67
2019-01-04T05:56:31.894Z,24.52
2019-01-04T05:57:36.798Z,19.15
2019-01-04T05:58:41.682Z,26.82
2019-01-04T05:59:46.865Z,20.65
2019-01-04T06:00:51.763Z,20.77
2019-01-04T06:01:56.743Z,31.37
2019-01-04T06:03:01.634Z,24.02
2019-01-04T06:04:06.767Z,22.82
2019-01-04T06:05:11.668Z,23.07
2019-01-04T06:06:16.580Z,43.40
2019-01-04T06:07:21.725Z,30.75
2019-01-04T06:08:26.624Z,24.72
2019-01-04T06:09:31.528Z,20.72
2019-01-04T06:10:36.567Z,23.05
2019-01-04T06:11:41.455Z,23.22
2019-01-04T06:12:46.366Z,25.15
2019-01-04T06:13:51.278Z,20.90
2019-01-04T06:14:56.178Z,17.30
2019-01-04T06:16:01.369Z,26.52
2019-01-04T06:17:06.252Z,26.68
2019-01-04T06:18:11.175Z,21.17
2019-01-04T06:19:16.058Z,22.80
2019-01-04T06:20:20.960Z,24.72
2019-01-04T06:21:25.853Z,21.27
2019-01-04T06:22:30.745Z,19.32
2019-01-04T06:23:35.654Z,19.32
2019-01-04T06:24:40.860Z,20.85
2019-01-04T06:25:45.752Z,25.35
2019-01-04T06:26:50.639Z,19.20
2019-01-04T06:27:55.561Z,17.55
2019-01-04T06:29:00.474Z,16.30
2019-01-04T06:30:06.001Z,19.85
2019-01-04T06:31:10.932Z,26.55
2019-01-04T06:32:16.117Z,18.00
2019-01-04T06:33:21.256Z,19.90
2019-01-04T06:34:26.176Z,16.73
2019-01-04T06:35:31.133Z,19.73
2019-01-04T06:36:36.511Z,19.50
2019-01-04T06:37:41.395Z,16.10
2019-01-04T06:38:46.390Z,17.62
2019-01-04T06:39:51.295Z,19.45
2019-01-04T06:40:56.273Z,16.20
2019-01-04T06:42:01.156Z,19.32
2019-01-04T06:43:06.067Z,16.10
2019-01-04T06:44:10.948Z,17.25
2019-01-04T06:45:16.089Z,18.35
2019-01-04T06:46:20.981Z,20.25
2019-01-04T06:47:25.881Z,18.23
2019-01-04T06:48:30.801Z,15.90
2019-01-04T06:49:35.696Z,15.93
2019-01-04T06:50:40.869Z,18.00
2019-01-04T06:51:45.866Z,19.00
2019-01-04T06:52:50.762Z,17.40
2019-01-04T06:53:55.687Z,18.50
2019-01-04T06:55:50.300Z,16.70
2019-01-04T06:56:55.208Z,21.02
2019-01-04T06:58:00.181Z,17.87
2019-01-04T06:59:05.162Z,19.87
2019-01-04T07:00:10.225Z,16.95
2019-01-04T07:01:15.205Z,21.30
2019-01-04T07:02:20.332Z,19.98
2019-01-04T07:03:25.219Z,18.00
2019-01-04T07:04:30.150Z,18.12
2019-01-04T07:05:35.049Z,18.57
2019-01-04T07:06:39.948Z,15.18
2019-01-04T07:07:44.845Z,15.50
2019-01-04T07:08:49.986Z,17.32
2019-01-04T07:09:54.976Z,18.77
2019-01-04T07:10:59.864Z,18.25
2019-01-04T07:12:04.884Z,15.28
2019-01-04T07:13:09.851Z,17.75
2019-01-04T07:14:14.746Z,16.93
2019-01-04T07:15:19.946Z,16.12
2019-01-04T07:16:24.924Z,14.60
2019-01-04T07:17:30.098Z,15.93
2019-01-04T07:18:35.190Z,14.20
2019-01-04T07:19:40.128Z,14.70
2019-01-04T07:20:45.108Z,17.90
2019-01-04T07:21:50.008Z,14.07
2019-01-04T07:22:54.903Z,15.40
2019-01-04T07:23:59.804Z,19.05
2019-01-04T07:25:04.913Z,14.05
2019-01-04T07:26:09.805Z,15.13
2019-01-04T07:27:14.775Z,14.78
2019-01-04T07:28:19.903Z,12.93
2019-01-04T07:29:24.969Z,14.63
2019-01-04T07:30:29.942Z,15.83
2019-01-04T07:31:34.851Z,16.95
2019-01-04T07:32:39.989Z,17.70
2019-01-04T07:33:45.074Z,16.23
2019-01-04T07:34:49.960Z,17.20
2019-01-04T07:35:54.902Z,18.15
2019-01-04T07:37:00.149Z,14.50
2019-01-04T07:38:05.110Z,16.07
2019-01-04T07:39:10.022Z,17.80
2019-01-04T07:40:14.909Z,19.40
2019-01-04T07:41:19.798Z,16.93
2019-01-04T07:42:24.692Z,15.83
2019-01-04T07:43:29.833Z,15.15
2019-01-04T07:44:34.773Z,22.48
2019-01-04T07:45:40.031Z,18.77
2019-01-04T07:46:44.923Z,21.95
2019-01-04T07:47:50.173Z,19.50
2019-01-04T07:48:55.068Z,18.20
2019-01-04T07:50:00.967Z,19.70
2019-01-04T07:51:05.858Z,22.55
2019-01-04T07:52:10.753Z,19.48
2019-01-04T07:53:15.880Z,17.92
2019-01-04T07:54:21.028Z,18.48
2019-01-04T07:55:26.382Z,21.73
2019-01-04T07:56:31.273Z,20.25
2019-01-04T07:57:37.121Z,19.62
2019-01-04T07:58:42.260Z,21.02
2019-01-04T07:59:50.041Z,16.90
2019-01-04T08:00:54.945Z,21.57
2019-01-04T08:01:59.848Z,20.37
2019-01-04T08:03:18.746Z,17.57
2019-01-04T08:04:23.630Z,23.10
2019-01-04T08:05:29.300Z,19.82
2019-01-04T08:06:34.208Z,15.78
2019-01-04T08:07:39.115Z,18.92
2019-01-04T08:08:44.243Z,17.27
2019-01-04T08:09:49.150Z,17.15
2019-01-04T08:10:54.107Z,27.93
2019-01-04T08:11:59.019Z,18.07
2019-01-04T08:13:03.982Z,19.30
2019-01-04T08:14:08.865Z,14.93
2019-01-04T08:15:13.828Z,21.37
2019-01-04T08:16:18.760Z,18.85
2019-01-04T08:17:23.741Z,18.37
2019-01-04T08:18:28.628Z,21.23
2019-01-04T08:19:33.510Z,18.23
2019-01-04T08:20:38.410Z,15.35
2019-01-04T08:21:43.292Z,17.98
2019-01-04T08:22:48.516Z,20.62
2019-01-04T08:23:53.664Z,20.30
2019-01-04T08:24:58.575Z,17.45
2019-01-04T08:26:03.544Z,21.50
2019-01-04T08:27:08.429Z,22.22
2019-01-04T08:28:13.578Z,18.87
2019-01-04T08:29:18.481Z,19.60
2019-01-04T08:30:23.945Z,22.15
2019-01-04T08:31:28.838Z,20.43
2019-01-04T08:32:33.760Z,20.50
2019-01-04T08:33:38.802Z,28.75
2019-01-04T08:34:43.932Z,22.93
2019-01-04T08:35:48.848Z,20.57
2019-01-04T08:36:53.736Z,22.30
2019-01-04T08:37:58.639Z,22.25
2019-01-04T08:39:05.094Z,21.35
2019-01-04T08:40:11.505Z,24.37
2019-01-04T08:41:16.391Z,24.85
2019-01-04T08:42:21.529Z,19.07
2019-01-04T08:43:26.455Z,19.92
2019-01-04T08:44:31.363Z,27.30
2019-01-04T08:45:36.274Z,22.32
2019-01-04T08:46:41.144Z,26.45
2019-01-04T08:47:46.055Z,19.87
2019-01-04T08:48:51.208Z,23.47
2019-01-04T08:49:56.369Z,24.52
2019-01-04T08:51:01.342Z,23.05
2019-01-04T08:52:06.302Z,22.73
2019-01-04T08:53:11.281Z,25.75
2019-01-04T08:54:16.266Z,26.80
2019-01-04T08:55:26.522Z,22.80
2019-01-04T08:56:33.836Z,23.87
2019-01-04T08:57:38.746Z,24.00
2019-01-04T08:58:43.711Z,23.47
2019-01-04T08:59:49.599Z,25.02
2019-01-04T09:00:54.534Z,26.37
2019-01-04T09:01:59.463Z,25.10
2019-01-04T09:03:04.432Z,27.00
2019-01-04T09:04:09.402Z,26.35
2019-01-04T09:05:14.308Z,24.98
2019-01-04T09:06:19.496Z,24.95
2019-01-04T09:07:24.730Z,26.12
2019-01-04T09:08:29.630Z,26.33
2019-01-04T09:09:34.775Z,29.45
2019-01-04T09:10:39.767Z,29.37
2019-01-04T09:11:44.943Z,28.12
2019-01-04T09:12:49.915Z,26.80
2019-01-04T09:13:55.215Z,30.10
2019-01-04T09:15:00.170Z,28.75
2019-01-04T09:16:05.320Z,34.92
2019-01-04T09:17:10.308Z,27.45
2019-01-04T09:18:15.336Z,27.27
2019-01-04T09:19:20.611Z,32.85
2019-01-04T09:20:26.085Z,45.08
2019-01-04T09:21:31.032Z,29.60
2019-01-04T09:22:36.104Z,31.45
2019-01-04T09:23:41.071Z,35.45
2019-01-04T09:24:45.967Z,31.65
2019-01-04T09:25:51.164Z,31.35
2019-01-04T09:26:56.143Z,36.98
2019-01-04T09:28:01.043Z,31.95
2019-01-04T09:29:06.093Z,32.08
2019-01-04T09:30:13.204Z,37.05
2019-01-04T09:31:18.362Z,39.18
2019-01-04T09:32:23.278Z,35.68
2019-01-04T09:33:28.208Z,36.98
2019-01-04T09:34:33.112Z,34.90
2019-01-04T09:35:38.000Z,32.40
2019-01-04T09:36:43.196Z,36.40
2019-01-04T09:37:48.401Z,38.48
2019-01-04T09:38:53.507Z,40.58
2019-01-04T09:39:58.400Z,35.92
2019-01-04T09:41:28.226Z,34.60
2019-01-04T09:42:33.111Z,37.35
2019-01-04T09:43:38.036Z,34.80
2019-01-04T09:44:43.889Z,35.35
2019-01-04T09:45:48.779Z,37.53
2019-01-04T09:46:53.664Z,36.10
2019-01-04T09:47:58.551Z,39.15
2019-01-04T09:49:03.600Z,31.42
2019-01-04T09:50:09.695Z,34.40
2019-01-04T09:51:14.577Z,40.55
2019-01-04T09:52:19.685Z,39.18
2019-01-04T09:53:24.572Z,39.50
2019-01-04T09:54:29.709Z,39.88
2019-01-04T09:55:34.918Z,32.30
2019-01-04T09:56:39.877Z,34.23
2019-01-04T09:57:44.820Z,35.23
2019-01-04T09:58:49.953Z,41.75
2019-01-04T09:59:54.872Z,36.20
2019-01-04T10:00:59.968Z,32.67
2019-01-04T10:02:05.836Z,34.35
2019-01-04T10:03:10.728Z,37.60
2019-01-04T10:04:15.755Z,35.73
2019-01-04T10:05:20.967Z,35.58
2019-01-04T10:06:26.133Z,41.53
2019-01-04T10:07:31.023Z,36.03
2019-01-04T10:08:36.066Z,38.13
2019-01-04T10:09:41.720Z,33.48
2019-01-04T10:10:46.840Z,31.82
2019-01-04T10:11:51.743Z,32.53
2019-01-04T10:12:56.903Z,43.15
2019-01-04T10:14:01.887Z,35.30
2019-01-04T10:15:08.611Z,40.30
2019-01-04T10:16:13.495Z,34.13
2019-01-04T10:17:18.660Z,30.80
2019-01-04T10:18:23.614Z,31.75
2019-01-04T10:19:28.460Z,34.00
2019-01-04T10:20:33.353Z,31.77
2019-01-04T10:21:38.257Z,32.17
2019-01-04T10:22:43.155Z,31.10
2019-01-04T10:23:48.051Z,33.08
2019-01-04T10:24:53.275Z,35.48
2019-01-04T10:25:58.196Z,29.75
2019-01-04T10:27:03.168Z,34.58
2019-01-04T10:28:08.086Z,32.23
2019-01-04T10:29:13.247Z,32.23
2019-01-04T10:30:25.007Z,28.98
2019-01-04T10:31:29.888Z,32.05
2019-01-04T10:32:34.849Z,26.62
2019-01-04T10:33:39.756Z,33.15
2019-01-04T10:34:44.649Z,36.17
2019-01-04T10:35:49.571Z,31.62
2019-01-04T10:36:54.491Z,35.08
2019-01-04T10:37:59.386Z,30.37
2019-01-04T10:39:06.944Z,29.05
2019-01-04T10:40:12.099Z,28.67
2019-01-04T10:41:16.995Z,27.67
2019-01-04T10:42:21.908Z,33.75
2019-01-04T10:43:26.813Z,26.70
2019-01-04T10:44:31.991Z,26.93
2019-01-04T10:45:37.201Z,23.20
2019-01-04T10:46:42.220Z,27.17
2019-01-04T10:47:47.175Z,23.83
2019-01-04T10:48:52.495Z,24.60
2019-01-04T10:49:57.460Z,25.57
2019-01-04T10:51:02.372Z,29.65
2019-01-04T10:52:07.335Z,24.72
2019-01-04T10:53:12.235Z,27.02
2019-01-04T10:54:17.204Z,22.87
2019-01-04T10:55:22.271Z,26.87
2019-01-04T10:56:27.178Z,20.52
2019-01-04T10:57:32.380Z,20.77
2019-01-04T10:58:37.276Z,25.10
2019-01-04T10:59:42.168Z,20.50
2019-01-04T11:00:52.183Z,24.80
2019-01-04T11:01:57.833Z,20.90
2019-01-04T11:03:07.683Z,21.30
2019-01-04T11:04:13.649Z,24.37
2019-01-04T11:05:18.545Z,20.43
2019-01-04T11:06:23.527Z,25.00
2019-01-04T11:07:28.433Z,20.32
2019-01-04T11:08:33.411Z,23.50
2019-01-04T11:09:38.383Z,20.35
2019-01-04T11:10:43.360Z,18.70
2019-01-04T11:11:48.607Z,24.77
2019-01-04T11:12:53.504Z,19.60
2019-01-04T11:13:58.416Z,24.02
2019-01-04T11:15:03.442Z,16.45
2019-01-04T11:16:08.330Z,15.65
2019-01-04T11:17:13.286Z,16.00
2019-01-04T11:18:18.184Z,17.98
2019-01-04T11:19:23.063Z,14.58
2019-01-04T11:20:44.866Z,17.82
2019-01-04T11:21:49.837Z,14.07
2019-01-04T11:22:58.473Z,15.00
2019-01-04T11:24:53.786Z,15.43
2019-01-04T11:26:23.057Z,20.88
2019-01-04T11:27:37.296Z,13.28
2019-01-04T11:28:57.769Z,16.70
2019-01-04T11:30:27.962Z,14.35
2019-01-04T11:31:45.059Z,16.05
2019-01-04T11:33:09.999Z,15.68
2019-01-04T11:34:45.770Z,13.60
2019-01-04T11:36:23.731Z,14.07
2019-01-04T11:37:44.031Z,15.65
2019-01-04T11:39:13.844Z,17.15
2019-01-04T11:40:54.887Z,19.25
2019-01-04T11:42:41.804Z,26.37
2019-01-04T11:44:35.282Z,16.37
2019-01-04T11:46:05.448Z,14.23
2019-01-04T11:47:50.193Z,18.37
2019-01-04T11:49:10.250Z,13.62
2019-01-04T11:50:37.679Z,32.38
2019-01-04T11:52:03.823Z,16.87
2019-01-04T11:53:15.989Z,16.00
2019-01-04T11:54:27.409Z,19.07
2019-01-04T11:55:32.383Z,15.72
2019-01-04T11:56:37.535Z,16.07
2019-01-04T11:57:42.679Z,13.43
2019-01-04T11:58:47.814Z,17.12
2019-01-04T11:59:52.927Z,15.63
2019-01-04T12:00:58.138Z,21.93
2019-01-04T12:02:03.230Z,18.67
2019-01-04T12:03:08.360Z,14.07
2019-01-04T12:04:13.256Z,14.58
2019-01-04T12:05:18.231Z,16.62
2019-01-04T12:06:24.355Z,18.40
2019-01-04T12:07:29.328Z,27.67
2019-01-04T12:08:34.245Z,18.57
2019-01-04T12:09:39.123Z,18.57
2019-01-04T12:10:44.028Z,17.12
2019-01-04T12:11:48.959Z,16.25
2019-01-04T12:12:53.856Z,24.32
2019-01-04T12:13:59.833Z,19.00
2019-01-04T12:15:05.064Z,18.00
2019-01-04T12:16:09.989Z,20.50
2019-01-04T12:17:15.194Z,19.42
2019-01-04T12:18:20.156Z,18.10
2019-01-04T12:19:25.635Z,23.30
2019-01-04T12:20:30.534Z,24.72
2019-01-04T12:21:35.435Z,24.02
2019-01-04T12:22:40.580Z,22.20
2019-01-04T12:23:45.573Z,23.87
2019-01-04T12:24:50.548Z,25.80
2019-01-04T12:25:55.446Z,27.82
2019-01-04T12:27:00.414Z,25.88
2019-01-04T12:28:05.321Z,27.10
2019-01-04T12:29:10.747Z,24.57
2019-01-04T12:30:15.655Z,27.65
2019-01-04T12:31:20.629Z,29.02
2019-01-04T12:32:25.596Z,31.62
2019-01-04T12:33:30.889Z,25.90
2019-01-04T12:34:35.776Z,31.35
2019-01-04T12:35:40.683Z,23.42
2019-01-04T12:36:45.603Z,27.30
2019-01-04T12:37:50.514Z,31.52
2019-01-04T12:38:55.409Z,22.67
2019-01-04T12:40:00.593Z,27.45
2019-01-04T12:41:05.820Z,32.13
2019-01-04T12:42:10.794Z,30.68
2019-01-04T12:43:15.680Z,32.35
2019-01-04T12:44:20.569Z,32.30
2019-01-04T12:45:25.463Z,34.58
2019-01-04T12:46:30.439Z,36.00
2019-01-04T12:47:35.352Z,29.90
2019-01-04T12:48:40.279Z,32.90
2019-01-04T12:49:45.257Z,29.00
2019-01-04T12:50:50.156Z,37.80
2019-01-04T12:51:55.077Z,34.70
2019-01-04T12:53:00.038Z,34.55
2019-01-04T12:54:05.072Z,36.53
2019-01-04T12:55:10.378Z,38.55
2019-01-04T12:56:15.270Z,40.03
2019-01-04T12:57:20.202Z,43.90
2019-01-04T12:58:25.349Z,34.38
2019-01-04T12:59:30.235Z,39.05
2019-01-04T13:00:35.274Z,38.55
2019-01-04T13:01:40.255Z,46.48
2019-01-04T13:02:45.180Z,41.33
2019-01-04T13:03:50.093Z,41.00
2019-01-04T13:04:55.151Z,43.45
2019-01-04T13:06:00.039Z,39.95
2019-01-04T13:07:04.932Z,42.90
2019-01-04T13:08:10.001Z,43.68
2019-01-04T13:09:15.811Z,42.70
2019-01-04T13:10:20.707Z,42.98
2019-01-04T13:11:25.687Z,49.55
2019-01-04T13:12:30.892Z,44.03
2019-01-04T13:13:36.047Z,40.50
2019-01-04T13:14:41.007Z,42.75
2019-01-04T13:15:46.135Z,47.50
2019-01-04T13:16:51.034Z,43.83
2019-01-04T13:17:56.179Z,43.20
2019-01-04T13:19:01.107Z,46.05
2019-01-04T13:20:06.224Z,46.30
2019-01-04T13:21:11.120Z,43.25
2019-01-04T13:22:16.332Z,44.05
2019-01-04T13:23:21.229Z,46.08
2019-01-04T13:24:26.160Z,47.88
2019-01-04T13:25:31.309Z,49.50
2019-01-04T13:26:36.229Z,48.10
2019-01-04T13:27:41.120Z,42.75
2019-01-04T13:28:46.105Z,53.33
2019-01-04T13:29:51.003Z,56.08
2019-01-04T13:30:55.897Z,48.30
2019-01-04T13:32:00.819Z,42.70
2019-01-04T13:33:05.822Z,44.35
2019-01-04T13:34:11.112Z,45.00
2019-01-04T13:35:16.061Z,44.40
2019-01-04T13:36:20.948Z,51.15
2019-01-04T13:37:25.874Z,56.60
2019-01-04T13:38:30.896Z,48.00
2019-01-04T13:39:35.785Z,45.88
2019-01-04T13:40:40.772Z,50.35
2019-01-04T13:41:46.145Z,53.08
2019-01-04T13:42:51.138Z,49.35
2019-01-04T13:43:56.105Z,47.30
2019-01-04T13:45:01.091Z,54.13
2019-01-04T13:46:06.092Z,61.10
2019-01-04T13:47:10.983Z,45.88
2019-01-04T13:48:15.948Z,51.35
2019-01-04T13:49:20.846Z,49.65
2019-01-04T13:50:26.052Z,43.02
2019-01-04T13:51:30.961Z,47.85
2019-01-04T13:52:35.858Z,50.08
2019-01-04T13:53:40.743Z,54.93
2019-01-04T13:54:45.636Z,43.45
2019-01-04T13:55:50.833Z,50.73
2019-01-04T13:56:55.738Z,50.15
2019-01-04T13:58:00.668Z,48.15
2019-01-04T13:59:05.811Z,48.23
2019-01-04T14:00:11.091Z,49.13
2019-01-04T14:01:15.995Z,47.90
2019-01-04T14:02:20.904Z,51.90
2019-01-04T14:03:25.803Z,55.73
2019-01-04T14:04:30.697Z,48.13
2019-01-04T14:05:35.693Z,46.10
2019-01-04T14:06:40.581Z,47.08
2019-01-04T14:07:45.480Z,52.43
2019-01-04T14:08:50.621Z,51.73
2019-01-04T14:09:55.535Z,42.70
2019-01-04T14:11:00.682Z,49.50
2019-01-04T14:12:06.710Z,47.80
2019-01-04T14:13:13.257Z,49.88
2019-01-04T14:14:18.208Z,49.13
2019-01-04T14:15:23.242Z,49.63
2019-01-04T14:16:28.271Z,55.98
2019-01-04T14:17:33.173Z,49.45
2019-01-04T14:18:38.105Z,53.78
2019-01-04T14:19:43.043Z,45.55
2019-01-04T14:20:47.969Z,51.33
2019-01-04T14:21:52.883Z,50.25
2019-01-04T14:22:58.029Z,50.33
2019-01-04T14:24:03.009Z,54.35
2019-01-04T14:25:08.990Z,51.68
2019-01-04T14:26:13.952Z,43.55
2019-01-04T14:27:18.904Z,48.08
2019-01-04T14:28:23.807Z,47.48
2019-01-04T14:29:28.842Z,55.83